sensor_id;sensor_type;location;lat;lon;timestamp;P1;durP1;ratioP1;P2;durP2;ratioP2
47353;SDS011;50657;48.830;2.282;2023-02-07T00:00:44;3.40;;;0.93;;
47353;SDS011;50657;48.830;2.282;2023-02-07T00:03:11;6.05;;;1.45;;
47353;SDS011;50657;48.830;2.282;2023-02-07T00:05:38;9.07;;;2.17;;
47353;SDS011;50657;48.830;2.282;2023-02-07T00:08:06;2.00;;;1.08;;
47353;SDS011;50657;48.830;2.282;2023-02-07T00:10:33;3.58;;;1.33;;
47353;SDS011;50657;48.830;2.282;2023-02-07T00:13:01;6.50;;;1.27;;
47353;SDS011;50657;48.830;2.282;2023-02-07T00:15:29;5.28;;;1.63;;
47353;SDS011;50657;48.830;2.282;2023-02-07T00:17:56;4.85;;;1.23;;
47353;SDS011;50657;48.830;2.282;2023-02-07T00:20:23;3.08;;;1.20;;
47353;SDS011;50657;48.830;2.282;2023-02-07T00:22:51;5.60;;;2.70;;
47353;SDS011;50657;48.830;2.282;2023-02-07T00:25:21;3.75;;;1.42;;
47353;SDS011;50657;48.830;2.282;2023-02-07T00:27:48;4.05;;;1.10;;
47353;SDS011;50657;48.830;2.282;2023-02-07T00:30:15;4.13;;;1.10;;
47353;SDS011;50657;48.830;2.282;2023-02-07T00:32:44;2.63;;;0.70;;
47353;SDS011;50657;48.830;2.282;2023-02-07T00:35:11;6.80;;;1.00;;
47353;SDS011;50657;48.830;2.282;2023-02-07T00:37:38;3.75;;;1.52;;
47353;SDS011;50657;48.830;2.282;2023-02-07T00:40:07;4.97;;;1.65;;
47353;SDS011;50657;48.830;2.282;2023-02-07T00:42:34;6.97;;;1.02;;
47353;SDS011;50657;48.830;2.282;2023-02-07T00:45:03;3.83;;;1.48;;
47353;SDS011;50657;48.830;2.282;2023-02-07T00:47:30;7.13;;;2.15;;
47353;SDS011;50657;48.830;2.282;2023-02-07T00:49:59;7.97;;;1.98;;
47353;SDS011;50657;48.830;2.282;2023-02-07T00:52:26;2.38;;;0.90;;
47353;SDS011;50657;48.830;2.282;2023-02-07T00:54:56;7.05;;;1.80;;
47353;SDS011;50657;48.830;2.282;2023-02-07T00:57:23;4.57;;;1.10;;
47353;SDS011;50657;48.830;2.282;2023-02-07T00:59:50;7.10;;;0.57;;
47353;SDS011;50657;48.830;2.282;2023-02-07T01:02:20;2.28;;;0.50;;
47353;SDS011;50657;48.830;2.282;2023-02-07T01:04:48;4.05;;;0.98;;
47353;SDS011;50657;48.830;2.282;2023-02-07T01:07:18;2.25;;;0.50;;
47353;SDS011;50657;48.830;2.282;2023-02-07T01:09:46;2.67;;;1.40;;
47353;SDS011;50657;48.830;2.282;2023-02-07T01:12:14;1.58;;;0.52;;
47353;SDS011;50657;48.830;2.282;2023-02-07T01:14:42;3.72;;;1.13;;
47353;SDS011;50657;48.830;2.282;2023-02-07T01:17:09;4.97;;;0.30;;
47353;SDS011;50657;48.830;2.282;2023-02-07T01:19:37;2.55;;;1.55;;
47353;SDS011;50657;48.830;2.282;2023-02-07T01:22:04;6.15;;;0.88;;
47353;SDS011;50657;48.830;2.282;2023-02-07T01:24:34;3.05;;;1.60;;
47353;SDS011;50657;48.830;2.282;2023-02-07T01:27:02;2.30;;;0.35;;
47353;SDS011;50657;48.830;2.282;2023-02-07T01:29:30;2.45;;;0.60;;
47353;SDS011;50657;48.830;2.282;2023-02-07T01:31:58;3.20;;;0.45;;
47353;SDS011;50657;48.830;2.282;2023-02-07T01:34:26;3.15;;;0.90;;
47353;SDS011;50657;48.830;2.282;2023-02-07T01:36:53;4.90;;;0.70;;
47353;SDS011;50657;48.830;2.282;2023-02-07T01:39:23;1.25;;;0.65;;
47353;SDS011;50657;48.830;2.282;2023-02-07T01:41:51;2.53;;;0.65;;
47353;SDS011;50657;48.830;2.282;2023-02-07T01:47:31;3.67;;;0.88;;
47353;SDS011;50657;48.830;2.282;2023-02-07T01:50:00;2.92;;;0.82;;
47353;SDS011;50657;48.830;2.282;2023-02-07T01:52:30;4.85;;;0.75;;
47353;SDS011;50657;48.830;2.282;2023-02-07T01:55:01;2.08;;;0.47;;
47353;SDS011;50657;48.830;2.282;2023-02-07T01:57:32;1.73;;;0.63;;
47353;SDS011;50657;48.830;2.282;2023-02-07T02:00:01;2.08;;;0.60;;
47353;SDS011;50657;48.830;2.282;2023-02-07T02:02:40;1.75;;;1.33;;
47353;SDS011;50657;48.830;2.282;2023-02-07T02:05:11;3.85;;;1.27;;
47353;SDS011;50657;48.830;2.282;2023-02-07T02:07:41;1.15;;;0.60;;
47353;SDS011;50657;48.830;2.282;2023-02-07T02:10:12;4.13;;;0.80;;
47353;SDS011;50657;48.830;2.282;2023-02-07T02:12:50;2.70;;;0.80;;
47353;SDS011;50657;48.830;2.282;2023-02-07T02:15:34;2.65;;;0.50;;
47353;SDS011;50657;48.830;2.282;2023-02-07T02:18:16;3.75;;;0.50;;
47353;SDS011;50657;48.830;2.282;2023-02-07T02:21:00;4.07;;;0.80;;
47353;SDS011;50657;48.830;2.282;2023-02-07T02:23:48;3.00;;;1.25;;
47353;SDS011;50657;48.830;2.282;2023-02-07T02:26:44;4.03;;;0.82;;
47353;SDS011;50657;48.830;2.282;2023-02-07T02:29:41;2.22;;;0.73;;
47353;SDS011;50657;48.830;2.282;2023-02-07T02:32:49;1.95;;;1.10;;
47353;SDS011;50657;48.830;2.282;2023-02-07T02:35:33;1.67;;;0.57;;
47353;SDS011;50657;48.830;2.282;2023-02-07T02:38:11;4.30;;;0.55;;
47353;SDS011;50657;48.830;2.282;2023-02-07T02:40:45;3.88;;;0.95;;
47353;SDS011;50657;48.830;2.282;2023-02-07T02:43:20;6.78;;;1.45;;
47353;SDS011;50657;48.830;2.282;2023-02-07T02:45:57;1.13;;;0.65;;
47353;SDS011;50657;48.830;2.282;2023-02-07T02:48:29;1.30;;;0.50;;
47353;SDS011;50657;48.830;2.282;2023-02-07T02:50:57;1.13;;;0.50;;
47353;SDS011;50657;48.830;2.282;2023-02-07T02:53:26;1.90;;;0.47;;
47353;SDS011;50657;48.830;2.282;2023-02-07T02:56:05;2.95;;;1.02;;
47353;SDS011;50657;48.830;2.282;2023-02-07T02:58:59;4.53;;;0.88;;
47353;SDS011;50657;48.830;2.282;2023-02-07T03:01:44;1.95;;;1.02;;
47353;SDS011;50657;48.830;2.282;2023-02-07T03:04:34;3.97;;;0.47;;
47353;SDS011;50657;48.830;2.282;2023-02-07T03:07:26;2.47;;;1.05;;
47353;SDS011;50657;48.830;2.282;2023-02-07T03:10:11;1.00;;;0.50;;
47353;SDS011;50657;48.830;2.282;2023-02-07T03:12:47;10.55;;;0.93;;
47353;SDS011;50657;48.830;2.282;2023-02-07T03:15:22;11.80;;;1.40;;
47353;SDS011;50657;48.830;2.282;2023-02-07T03:18:00;9.02;;;1.40;;
47353;SDS011;50657;48.830;2.282;2023-02-07T03:23:04;8.07;;;3.80;;
47353;SDS011;50657;48.830;2.282;2023-02-07T03:25:35;16.15;;;1.63;;
47353;SDS011;50657;48.830;2.282;2023-02-07T03:28:03;5.72;;;0.88;;
47353;SDS011;50657;48.830;2.282;2023-02-07T03:30:35;10.93;;;2.53;;
47353;SDS011;50657;48.830;2.282;2023-02-07T03:33:04;10.93;;;1.65;;
47353;SDS011;50657;48.830;2.282;2023-02-07T03:35:38;13.98;;;2.45;;
47353;SDS011;50657;48.830;2.282;2023-02-07T03:38:13;5.47;;;1.15;;
47353;SDS011;50657;48.830;2.282;2023-02-07T03:40:41;9.13;;;1.58;;
47353;SDS011;50657;48.830;2.282;2023-02-07T03:43:13;7.22;;;1.15;;
47353;SDS011;50657;48.830;2.282;2023-02-07T03:45:43;6.55;;;1.35;;
47353;SDS011;50657;48.830;2.282;2023-02-07T03:48:10;8.55;;;1.48;;
47353;SDS011;50657;48.830;2.282;2023-02-07T03:50:41;4.72;;;0.30;;
47353;SDS011;50657;48.830;2.282;2023-02-07T03:53:08;4.10;;;0.52;;
47353;SDS011;50657;48.830;2.282;2023-02-07T03:55:38;5.35;;;0.47;;
47353;SDS011;50657;48.830;2.282;2023-02-07T03:58:05;3.92;;;0.93;;
47353;SDS011;50657;48.830;2.282;2023-02-07T04:00:33;6.13;;;0.45;;
47353;SDS011;50657;48.830;2.282;2023-02-07T04:03:01;13.50;;;1.15;;
47353;SDS011;50657;48.830;2.282;2023-02-07T04:05:29;6.93;;;1.00;;
47353;SDS011;50657;48.830;2.282;2023-02-07T04:07:57;2.03;;;0.57;;
47353;SDS011;50657;48.830;2.282;2023-02-07T04:10:28;5.13;;;0.47;;
47353;SDS011;50657;48.830;2.282;2023-02-07T04:12:55;3.40;;;0.68;;
47353;SDS011;50657;48.830;2.282;2023-02-07T04:15:22;3.30;;;0.75;;
47353;SDS011;50657;48.830;2.282;2023-02-07T04:17:49;4.07;;;0.88;;
47353;SDS011;50657;48.830;2.282;2023-02-07T04:20:17;4.32;;;0.28;;
47353;SDS011;50657;48.830;2.282;2023-02-07T04:22:44;5.70;;;0.60;;
47353;SDS011;50657;48.830;2.282;2023-02-07T04:25:13;3.10;;;1.20;;
47353;SDS011;50657;48.830;2.282;2023-02-07T04:27:40;9.40;;;0.52;;
47353;SDS011;50657;48.830;2.282;2023-02-07T04:30:08;9.38;;;0.45;;
47353;SDS011;50657;48.830;2.282;2023-02-07T04:32:37;4.07;;;1.13;;
47353;SDS011;50657;48.830;2.282;2023-02-07T04:35:09;2.67;;;0.52;;
47353;SDS011;50657;48.830;2.282;2023-02-07T04:37:36;1.67;;;0.63;;
47353;SDS011;50657;48.830;2.282;2023-02-07T04:40:05;1.42;;;0.20;;
47353;SDS011;50657;48.830;2.282;2023-02-07T04:42:34;1.63;;;0.43;;
47353;SDS011;50657;48.830;2.282;2023-02-07T04:45:02;2.53;;;0.28;;
47353;SDS011;50657;48.830;2.282;2023-02-07T04:47:29;4.13;;;0.47;;
47353;SDS011;50657;48.830;2.282;2023-02-07T04:49:57;4.32;;;0.32;;
47353;SDS011;50657;48.830;2.282;2023-02-07T04:52:25;3.03;;;0.68;;
47353;SDS011;50657;48.830;2.282;2023-02-07T04:54:52;1.70;;;0.45;;
47353;SDS011;50657;48.830;2.282;2023-02-07T04:57:19;1.55;;;1.17;;
47353;SDS011;50657;48.830;2.282;2023-02-07T04:59:47;2.05;;;0.30;;
47353;SDS011;50657;48.830;2.282;2023-02-07T05:02:14;1.15;;;0.30;;
47353;SDS011;50657;48.830;2.282;2023-02-07T05:04:43;1.92;;;0.40;;
47353;SDS011;50657;48.830;2.282;2023-02-07T05:07:10;1.65;;;0.40;;
47353;SDS011;50657;48.830;2.282;2023-02-07T05:09:39;4.97;;;0.70;;
47353;SDS011;50657;48.830;2.282;2023-02-07T05:12:06;3.90;;;0.68;;
47353;SDS011;50657;48.830;2.282;2023-02-07T05:14:33;1.95;;;0.52;;
47353;SDS011;50657;48.830;2.282;2023-02-07T05:17:02;1.27;;;0.30;;
47353;SDS011;50657;48.830;2.282;2023-02-07T05:19:31;4.22;;;0.63;;
47353;SDS011;50657;48.830;2.282;2023-02-07T05:21:58;0.60;;;0.50;;
47353;SDS011;50657;48.830;2.282;2023-02-07T05:24:28;4.85;;;0.50;;
47353;SDS011;50657;48.830;2.282;2023-02-07T05:26:55;0.75;;;0.28;;
47353;SDS011;50657;48.830;2.282;2023-02-07T05:29:25;3.30;;;0.73;;
47353;SDS011;50657;48.830;2.282;2023-02-07T05:31:52;1.65;;;0.90;;
47353;SDS011;50657;48.830;2.282;2023-02-07T05:34:40;2.17;;;0.38;;
47353;SDS011;50657;48.830;2.282;2023-02-07T05:37:11;1.17;;;0.30;;
47353;SDS011;50657;48.830;2.282;2023-02-07T05:39:40;2.58;;;0.65;;
47353;SDS011;50657;48.830;2.282;2023-02-07T05:42:07;2.25;;;0.30;;
47353;SDS011;50657;48.830;2.282;2023-02-07T05:44:35;4.13;;;0.50;;
47353;SDS011;50657;48.830;2.282;2023-02-07T05:47:02;0.82;;;0.20;;
47353;SDS011;50657;48.830;2.282;2023-02-07T05:49:33;6.97;;;0.47;;
47353;SDS011;50657;48.830;2.282;2023-02-07T05:52:03;2.08;;;0.20;;
47353;SDS011;50657;48.830;2.282;2023-02-07T05:54:33;2.05;;;0.57;;
47353;SDS011;50657;48.830;2.282;2023-02-07T05:57:01;1.70;;;0.20;;
47353;SDS011;50657;48.830;2.282;2023-02-07T05:59:29;1.05;;;0.52;;
47353;SDS011;50657;48.830;2.282;2023-02-07T06:02:00;2.33;;;0.50;;
47353;SDS011;50657;48.830;2.282;2023-02-07T06:04:27;2.17;;;0.75;;
47353;SDS011;50657;48.830;2.282;2023-02-07T06:06:58;3.45;;;0.88;;
47353;SDS011;50657;48.830;2.282;2023-02-07T06:09:28;1.45;;;0.50;;
47353;SDS011;50657;48.830;2.282;2023-02-07T06:11:55;0.40;;;0.28;;
47353;SDS011;50657;48.830;2.282;2023-02-07T06:14:25;2.03;;;0.50;;
47353;SDS011;50657;48.830;2.282;2023-02-07T06:16:57;2.67;;;0.40;;
47353;SDS011;50657;48.830;2.282;2023-02-07T06:19:27;2.38;;;0.20;;
47353;SDS011;50657;48.830;2.282;2023-02-07T06:21:55;1.55;;;0.30;;
47353;SDS011;50657;48.830;2.282;2023-02-07T06:24:28;0.57;;;0.20;;
47353;SDS011;50657;48.830;2.282;2023-02-07T06:26:55;1.38;;;0.32;;
47353;SDS011;50657;48.830;2.282;2023-02-07T06:29:23;2.15;;;0.50;;
47353;SDS011;50657;48.830;2.282;2023-02-07T06:31:50;0.82;;;0.40;;
47353;SDS011;50657;48.830;2.282;2023-02-07T06:34:17;0.57;;;0.20;;
47353;SDS011;50657;48.830;2.282;2023-02-07T06:36:44;1.45;;;0.45;;
47353;SDS011;50657;48.830;2.282;2023-02-07T06:39:12;2.95;;;0.50;;
47353;SDS011;50657;48.830;2.282;2023-02-07T06:41:40;1.17;;;0.35;;
47353;SDS011;50657;48.830;2.282;2023-02-07T06:44:09;3.25;;;0.43;;
47353;SDS011;50657;48.830;2.282;2023-02-07T06:46:38;1.30;;;0.55;;
47353;SDS011;50657;48.830;2.282;2023-02-07T06:49:05;2.08;;;0.32;;
47353;SDS011;50657;48.830;2.282;2023-02-07T06:51:32;4.22;;;0.68;;
47353;SDS011;50657;48.830;2.282;2023-02-07T06:54:00;1.15;;;0.20;;
47353;SDS011;50657;48.830;2.282;2023-02-07T06:56:34;3.05;;;0.93;;
47353;SDS011;50657;48.830;2.282;2023-02-07T06:59:03;1.63;;;0.40;;
47353;SDS011;50657;48.830;2.282;2023-02-07T07:01:30;3.10;;;0.80;;
47353;SDS011;50657;48.830;2.282;2023-02-07T07:03:58;1.30;;;0.45;;
47353;SDS011;50657;48.830;2.282;2023-02-07T07:06:26;1.65;;;0.57;;
47353;SDS011;50657;48.830;2.282;2023-02-07T07:08:54;1.55;;;0.20;;
47353;SDS011;50657;48.830;2.282;2023-02-07T07:11:21;2.85;;;1.23;;
47353;SDS011;50657;48.830;2.282;2023-02-07T07:13:52;1.88;;;0.55;;
47353;SDS011;50657;48.830;2.282;2023-02-07T07:16:20;2.17;;;0.45;;
47353;SDS011;50657;48.830;2.282;2023-02-07T07:18:48;2.20;;;0.32;;
47353;SDS011;50657;48.830;2.282;2023-02-07T07:21:16;1.55;;;0.52;;
47353;SDS011;50657;48.830;2.282;2023-02-07T07:23:43;2.63;;;0.60;;
47353;SDS011;50657;48.830;2.282;2023-02-07T07:26:11;1.52;;;0.65;;
47353;SDS011;50657;48.830;2.282;2023-02-07T07:28:38;0.77;;;0.50;;
47353;SDS011;50657;48.830;2.282;2023-02-07T07:31:05;1.40;;;0.35;;
47353;SDS011;50657;48.830;2.282;2023-02-07T07:33:35;2.25;;;0.40;;
47353;SDS011;50657;48.830;2.282;2023-02-07T07:36:02;2.72;;;0.30;;
47353;SDS011;50657;48.830;2.282;2023-02-07T07:38:30;1.20;;;0.25;;
47353;SDS011;50657;48.830;2.282;2023-02-07T07:40:59;0.88;;;0.20;;
47353;SDS011;50657;48.830;2.282;2023-02-07T07:43:30;3.40;;;0.32;;
47353;SDS011;50657;48.830;2.282;2023-02-07T07:45:58;2.22;;;1.02;;
47353;SDS011;50657;48.830;2.282;2023-02-07T07:48:26;3.30;;;0.63;;
47353;SDS011;50657;48.830;2.282;2023-02-07T07:50:56;1.83;;;0.30;;
47353;SDS011;50657;48.830;2.282;2023-02-07T07:53:24;0.70;;;0.30;;
47353;SDS011;50657;48.830;2.282;2023-02-07T07:55:53;1.25;;;0.40;;
47353;SDS011;50657;48.830;2.282;2023-02-07T07:58:21;2.10;;;0.40;;
47353;SDS011;50657;48.830;2.282;2023-02-07T08:00:49;0.60;;;0.22;;
47353;SDS011;50657;48.830;2.282;2023-02-07T08:03:19;3.10;;;0.47;;
47353;SDS011;50657;48.830;2.282;2023-02-07T08:05:46;4.88;;;0.20;;
47353;SDS011;50657;48.830;2.282;2023-02-07T08:08:15;2.83;;;0.68;;
47353;SDS011;50657;48.830;2.282;2023-02-07T08:10:44;0.82;;;0.30;;
47353;SDS011;50657;48.830;2.282;2023-02-07T08:13:11;2.78;;;0.30;;
47353;SDS011;50657;48.830;2.282;2023-02-07T08:15:41;0.68;;;0.10;;
47353;SDS011;50657;48.830;2.282;2023-02-07T08:18:08;0.30;;;0.20;;
47353;SDS011;50657;48.830;2.282;2023-02-07T08:20:35;0.52;;;0.25;;
47353;SDS011;50657;48.830;2.282;2023-02-07T08:23:02;0.52;;;0.52;;
47353;SDS011;50657;48.830;2.282;2023-02-07T08:25:31;0.70;;;0.57;;
47353;SDS011;50657;48.830;2.282;2023-02-07T08:27:59;3.33;;;0.40;;
47353;SDS011;50657;48.830;2.282;2023-02-07T08:30:29;1.23;;;0.40;;
47353;SDS011;50657;48.830;2.282;2023-02-07T08:32:56;3.92;;;0.75;;
47353;SDS011;50657;48.830;2.282;2023-02-07T08:35:25;1.85;;;0.50;;
47353;SDS011;50657;48.830;2.282;2023-02-07T08:37:54;4.80;;;0.57;;
47353;SDS011;50657;48.830;2.282;2023-02-07T08:40:25;5.00;;;0.50;;
47353;SDS011;50657;48.830;2.282;2023-02-07T08:42:53;1.98;;;0.50;;
47353;SDS011;50657;48.830;2.282;2023-02-07T08:45:20;2.47;;;1.13;;
47353;SDS011;50657;48.830;2.282;2023-02-07T08:47:50;1.05;;;0.40;;
47353;SDS011;50657;48.830;2.282;2023-02-07T08:50:17;1.55;;;0.38;;
47353;SDS011;50657;48.830;2.282;2023-02-07T08:52:46;2.92;;;0.88;;
47353;SDS011;50657;48.830;2.282;2023-02-07T08:55:13;2.58;;;0.55;;
47353;SDS011;50657;48.830;2.282;2023-02-07T08:57:44;3.33;;;0.65;;
47353;SDS011;50657;48.830;2.282;2023-02-07T09:00:13;0.70;;;0.50;;
47353;SDS011;50657;48.830;2.282;2023-02-07T09:02:41;1.45;;;1.27;;
47353;SDS011;50657;48.830;2.282;2023-02-07T09:05:10;1.38;;;0.60;;
47353;SDS011;50657;48.830;2.282;2023-02-07T09:07:39;0.70;;;0.70;;
47353;SDS011;50657;48.830;2.282;2023-02-07T09:10:07;0.40;;;0.40;;
47353;SDS011;50657;48.830;2.282;2023-02-07T09:12:35;1.60;;;0.73;;
47353;SDS011;50657;48.830;2.282;2023-02-07T09:15:02;0.75;;;0.20;;
47353;SDS011;50657;48.830;2.282;2023-02-07T09:17:32;4.38;;;0.88;;
47353;SDS011;50657;48.830;2.282;2023-02-07T09:19:59;1.38;;;0.50;;
47353;SDS011;50657;48.830;2.282;2023-02-07T09:22:26;0.70;;;0.60;;
47353;SDS011;50657;48.830;2.282;2023-02-07T09:24:55;3.17;;;0.88;;
47353;SDS011;50657;48.830;2.282;2023-02-07T09:27:25;1.67;;;0.63;;
47353;SDS011;50657;48.830;2.282;2023-02-07T09:29:53;2.65;;;0.38;;
47353;SDS011;50657;48.830;2.282;2023-02-07T09:32:20;0.70;;;0.43;;
47353;SDS011;50657;48.830;2.282;2023-02-07T09:34:49;3.47;;;1.83;;
47353;SDS011;50657;48.830;2.282;2023-02-07T09:37:18;1.75;;;0.40;;
47353;SDS011;50657;48.830;2.282;2023-02-07T09:39:50;2.70;;;0.90;;
47353;SDS011;50657;48.830;2.282;2023-02-07T09:42:26;1.85;;;0.50;;
47353;SDS011;50657;48.830;2.282;2023-02-07T09:45:00;5.00;;;1.25;;
47353;SDS011;50657;48.830;2.282;2023-02-07T09:47:32;0.68;;;0.25;;
47353;SDS011;50657;48.830;2.282;2023-02-07T09:50:05;2.28;;;0.82;;
47353;SDS011;50657;48.830;2.282;2023-02-07T09:52:39;0.32;;;0.30;;
47353;SDS011;50657;48.830;2.282;2023-02-07T09:55:13;0.85;;;0.43;;
47353;SDS011;50657;48.830;2.282;2023-02-07T09:57:49;1.00;;;0.40;;
47353;SDS011;50657;48.830;2.282;2023-02-07T10:00:22;1.52;;;0.30;;
47353;SDS011;50657;48.830;2.282;2023-02-07T10:02:55;1.70;;;0.47;;
47353;SDS011;50657;48.830;2.282;2023-02-07T10:05:31;1.05;;;0.32;;
47353;SDS011;50657;48.830;2.282;2023-02-07T10:08:06;4.40;;;0.43;;
47353;SDS011;50657;48.830;2.282;2023-02-07T10:10:39;5.25;;;0.65;;
47353;SDS011;50657;48.830;2.282;2023-02-07T10:13:18;4.25;;;0.73;;
47353;SDS011;50657;48.830;2.282;2023-02-07T10:15:57;16.50;;;1.45;;
47353;SDS011;50657;48.830;2.282;2023-02-07T10:18:37;9.85;;;1.10;;
47353;SDS011;50657;48.830;2.282;2023-02-07T10:21:15;1.92;;;0.80;;
47353;SDS011;50657;48.830;2.282;2023-02-07T10:23:56;34.97;;;7.10;;
47353;SDS011;50657;48.830;2.282;2023-02-07T10:26:45;49.08;;;8.23;;
47353;SDS011;50657;48.830;2.282;2023-02-07T10:29:24;42.05;;;6.95;;
47353;SDS011;50657;48.830;2.282;2023-02-07T10:32:00;21.48;;;3.30;;
47353;SDS011;50657;48.830;2.282;2023-02-07T10:34:35;10.75;;;2.72;;
47353;SDS011;50657;48.830;2.282;2023-02-07T10:37:13;3.35;;;1.30;;
47353;SDS011;50657;48.830;2.282;2023-02-07T10:39:44;5.07;;;1.35;;
47353;SDS011;50657;48.830;2.282;2023-02-07T10:42:17;5.05;;;1.95;;
47353;SDS011;50657;48.830;2.282;2023-02-07T10:44:45;5.93;;;1.08;;
47353;SDS011;50657;48.830;2.282;2023-02-07T10:47:14;11.50;;;1.90;;
47353;SDS011;50657;48.830;2.282;2023-02-07T10:49:44;2.40;;;2.00;;
47353;SDS011;50657;48.830;2.282;2023-02-07T10:52:20;8.48;;;1.80;;
47353;SDS011;50657;48.830;2.282;2023-02-07T10:54:56;6.57;;;3.05;;
47353;SDS011;50657;48.830;2.282;2023-02-07T10:57:24;2.83;;;0.95;;
47353;SDS011;50657;48.830;2.282;2023-02-07T10:59:59;3.25;;;0.90;;
47353;SDS011;50657;48.830;2.282;2023-02-07T11:02:37;3.67;;;1.10;;
47353;SDS011;50657;48.830;2.282;2023-02-07T11:08:22;4.55;;;1.45;;
47353;SDS011;50657;48.830;2.282;2023-02-07T11:10:53;2.40;;;1.13;;
47353;SDS011;50657;48.830;2.282;2023-02-07T11:13:22;2.42;;;0.88;;
47353;SDS011;50657;48.830;2.282;2023-02-07T11:15:54;4.93;;;0.98;;
47353;SDS011;50657;48.830;2.282;2023-02-07T11:18:54;3.47;;;1.83;;
47353;SDS011;50657;48.830;2.282;2023-02-07T11:21:24;5.18;;;1.35;;
47353;SDS011;50657;48.830;2.282;2023-02-07T11:23:56;3.75;;;2.38;;
47353;SDS011;50657;48.830;2.282;2023-02-07T11:26:26;6.85;;;1.52;;
47353;SDS011;50657;48.830;2.282;2023-02-07T11:29:00;9.77;;;1.45;;
47353;SDS011;50657;48.830;2.282;2023-02-07T11:31:31;4.95;;;1.55;;
47353;SDS011;50657;48.830;2.282;2023-02-07T11:34:09;3.63;;;2.22;;
47353;SDS011;50657;48.830;2.282;2023-02-07T11:36:53;3.72;;;1.30;;
47353;SDS011;50657;48.830;2.282;2023-02-07T11:39:34;1.77;;;1.67;;
47353;SDS011;50657;48.830;2.282;2023-02-07T11:42:10;6.40;;;2.53;;
47353;SDS011;50657;48.830;2.282;2023-02-07T11:44:39;2.33;;;1.98;;
47353;SDS011;50657;48.830;2.282;2023-02-07T11:47:08;5.68;;;2.83;;
47353;SDS011;50657;48.830;2.282;2023-02-07T11:49:40;7.10;;;2.38;;
47353;SDS011;50657;48.830;2.282;2023-02-07T11:52:14;3.35;;;2.50;;
47353;SDS011;50657;48.830;2.282;2023-02-07T11:54:47;5.00;;;1.88;;
47353;SDS011;50657;48.830;2.282;2023-02-07T11:57:19;39.15;;;4.07;;
47353;SDS011;50657;48.830;2.282;2023-02-07T11:59:49;9.18;;;2.88;;
47353;SDS011;50657;48.830;2.282;2023-02-07T12:02:38;8.05;;;3.50;;
47353;SDS011;50657;48.830;2.282;2023-02-07T12:05:11;6.68;;;2.28;;
47353;SDS011;50657;48.830;2.282;2023-02-07T12:07:44;4.45;;;1.38;;
47353;SDS011;50657;48.830;2.282;2023-02-07T12:10:22;6.63;;;1.52;;
47353;SDS011;50657;48.830;2.282;2023-02-07T12:12:53;4.70;;;2.22;;
47353;SDS011;50657;48.830;2.282;2023-02-07T12:15:27;3.00;;;1.80;;
47353;SDS011;50657;48.830;2.282;2023-02-07T12:17:59;5.30;;;1.92;;
47353;SDS011;50657;48.830;2.282;2023-02-07T12:20:33;3.28;;;1.35;;
47353;SDS011;50657;48.830;2.282;2023-02-07T12:23:05;4.07;;;1.83;;
47353;SDS011;50657;48.830;2.282;2023-02-07T12:25:40;6.10;;;2.88;;
47353;SDS011;50657;48.830;2.282;2023-02-07T12:28:16;10.82;;;1.92;;
47353;SDS011;50657;48.830;2.282;2023-02-07T12:30:50;8.30;;;1.95;;
47353;SDS011;50657;48.830;2.282;2023-02-07T12:33:29;8.15;;;1.95;;
47353;SDS011;50657;48.830;2.282;2023-02-07T12:36:06;6.53;;;1.67;;
47353;SDS011;50657;48.830;2.282;2023-02-07T12:38:41;4.75;;;1.98;;
47353;SDS011;50657;48.830;2.282;2023-02-07T12:41:18;10.95;;;2.22;;
47353;SDS011;50657;48.830;2.282;2023-02-07T12:43:55;4.10;;;2.28;;
47353;SDS011;50657;48.830;2.282;2023-02-07T12:46:31;6.78;;;2.22;;
47353;SDS011;50657;48.830;2.282;2023-02-07T12:49:10;3.95;;;1.73;;
47353;SDS011;50657;48.830;2.282;2023-02-07T12:51:49;6.05;;;1.42;;
47353;SDS011;50657;48.830;2.282;2023-02-07T12:54:29;2.15;;;1.23;;
47353;SDS011;50657;48.830;2.282;2023-02-07T12:57:06;3.80;;;1.70;;
47353;SDS011;50657;48.830;2.282;2023-02-07T12:59:44;3.72;;;1.63;;
47353;SDS011;50657;48.830;2.282;2023-02-07T13:02:28;6.30;;;2.63;;
47353;SDS011;50657;48.830;2.282;2023-02-07T13:08:14;5.78;;;3.00;;
47353;SDS011;50657;48.830;2.282;2023-02-07T13:10:51;2.15;;;1.25;;
47353;SDS011;50657;48.830;2.282;2023-02-07T13:13:26;2.65;;;1.27;;
47353;SDS011;50657;48.830;2.282;2023-02-07T13:15:59;3.85;;;1.50;;
47353;SDS011;50657;48.830;2.282;2023-02-07T13:18:33;1.33;;;1.20;;
47353;SDS011;50657;48.830;2.282;2023-02-07T13:21:09;3.20;;;1.33;;
47353;SDS011;50657;48.830;2.282;2023-02-07T13:23:43;2.37;;;1.60;;
47353;SDS011;50657;48.830;2.282;2023-02-07T13:26:13;1.80;;;1.50;;
47353;SDS011;50657;48.830;2.282;2023-02-07T13:28:46;1.83;;;1.60;;
47353;SDS011;50657;48.830;2.282;2023-02-07T13:31:18;3.17;;;1.63;;
47353;SDS011;50657;48.830;2.282;2023-02-07T13:33:48;3.30;;;1.90;;
47353;SDS011;50657;48.830;2.282;2023-02-07T13:36:18;2.85;;;1.75;;
47353;SDS011;50657;48.830;2.282;2023-02-07T13:38:57;2.45;;;2.28;;
47353;SDS011;50657;48.830;2.282;2023-02-07T13:41:31;4.55;;;1.98;;
47353;SDS011;50657;48.830;2.282;2023-02-07T13:44:09;3.72;;;1.88;;
47353;SDS011;50657;48.830;2.282;2023-02-07T13:46:48;4.57;;;2.10;;
47353;SDS011;50657;48.830;2.282;2023-02-07T13:49:35;5.07;;;1.52;;
47353;SDS011;50657;48.830;2.282;2023-02-07T13:52:08;3.55;;;1.98;;
47353;SDS011;50657;48.830;2.282;2023-02-07T13:54:40;2.03;;;1.83;;
47353;SDS011;50657;48.830;2.282;2023-02-07T13:57:18;1.98;;;1.55;;
47353;SDS011;50657;48.830;2.282;2023-02-07T14:00:15;3.72;;;1.92;;
47353;SDS011;50657;48.830;2.282;2023-02-07T14:02:45;3.75;;;1.60;;
47353;SDS011;50657;48.830;2.282;2023-02-07T14:05:19;4.70;;;1.98;;
47353;SDS011;50657;48.830;2.282;2023-02-07T14:07:50;2.67;;;2.42;;
47353;SDS011;50657;48.830;2.282;2023-02-07T14:10:33;5.45;;;2.25;;
47353;SDS011;50657;48.830;2.282;2023-02-07T14:13:18;3.67;;;2.03;;
47353;SDS011;50657;48.830;2.282;2023-02-07T14:15:59;4.65;;;1.80;;
47353;SDS011;50657;48.830;2.282;2023-02-07T14:18:33;5.95;;;1.90;;
47353;SDS011;50657;48.830;2.282;2023-02-07T14:21:21;3.92;;;1.35;;
47353;SDS011;50657;48.830;2.282;2023-02-07T14:24:25;3.10;;;2.38;;
47353;SDS011;50657;48.830;2.282;2023-02-07T14:27:00;3.65;;;2.00;;
47353;SDS011;50657;48.830;2.282;2023-02-07T14:29:37;5.45;;;2.40;;
47353;SDS011;50657;48.830;2.282;2023-02-07T14:32:26;6.78;;;2.22;;
47353;SDS011;50657;48.830;2.282;2023-02-07T14:34:59;2.25;;;2.03;;
47353;SDS011;50657;48.830;2.282;2023-02-07T14:37:38;3.25;;;1.92;;
47353;SDS011;50657;48.830;2.282;2023-02-07T14:40:17;3.08;;;1.58;;
47353;SDS011;50657;48.830;2.282;2023-02-07T14:42:53;3.30;;;1.83;;
47353;SDS011;50657;48.830;2.282;2023-02-07T14:45:23;3.20;;;1.83;;
47353;SDS011;50657;48.830;2.282;2023-02-07T14:47:55;3.50;;;2.03;;
47353;SDS011;50657;48.830;2.282;2023-02-07T14:50:22;2.92;;;1.30;;
47353;SDS011;50657;48.830;2.282;2023-02-07T14:52:55;4.57;;;1.40;;
47353;SDS011;50657;48.830;2.282;2023-02-07T14:55:27;2.42;;;1.38;;
47353;SDS011;50657;48.830;2.282;2023-02-07T14:57:59;4.68;;;2.38;;
47353;SDS011;50657;48.830;2.282;2023-02-07T15:00:30;3.33;;;2.65;;
47353;SDS011;50657;48.830;2.282;2023-02-07T15:03:01;2.88;;;1.95;;
47353;SDS011;50657;48.830;2.282;2023-02-07T15:05:36;3.08;;;2.67;;
47353;SDS011;50657;48.830;2.282;2023-02-07T15:08:06;4.07;;;2.70;;
47353;SDS011;50657;48.830;2.282;2023-02-07T15:10:43;2.25;;;1.40;;
47353;SDS011;50657;48.830;2.282;2023-02-07T15:13:18;2.88;;;1.83;;
47353;SDS011;50657;48.830;2.282;2023-02-07T15:15:52;2.37;;;2.17;;
47353;SDS011;50657;48.830;2.282;2023-02-07T15:18:24;5.97;;;1.38;;
47353;SDS011;50657;48.830;2.282;2023-02-07T15:20:53;1.75;;;1.65;;
47353;SDS011;50657;48.830;2.282;2023-02-07T15:23:22;3.78;;;1.13;;
47353;SDS011;50657;48.830;2.282;2023-02-07T15:25:49;2.10;;;1.90;;
47353;SDS011;50657;48.830;2.282;2023-02-07T15:28:18;3.08;;;1.70;;